EDTY 200050Z AUTO 12003KT 9999 // NCD 15/14 Q1023 EDTY 200020Z AUTO 13004KT 9999 // NCD 16/15 Q1023 EDTY 192350Z AUTO 11005KT 9999 // FEW250/// 16/15 Q1023 EDTY 192320Z AUTO 04005KT 9999 // BKN130/// 16/15 Q1023 EDTY 192250Z AUTO 22008KT 130V280 9999 // FEW059/// BKN100/// BKN180/// 17/16 Q1023 EDTY 192220Z AUTO 21004KT 150V250 9999 // FEW110/// BKN140/// 16/15 Q1023 EDTY 192150Z AUTO 18005KT 130V230 9999 // FEW140/// 17/15 Q1023 EDTY 192120Z AUTO 13007KT 9999 // FEW055/// BKN068/// OVC120/// 17/15 Q1023 EDTY 192050Z AUTO 18004KT 130V210 9999 // FEW056/// BKN100/// BKN150/// 17/15 Q1024 EDTY 192020Z AUTO 11007KT 9999 // FEW062/// 17/15 Q1023 EDTY 191950Z AUTO 09006KT 060V130 9999 // BKN061/// OVC100/// 17/16 Q1023 EDTY 191920Z AUTO 36010KT 330V030 9999 // FEW012/// OVC058/// 18/16 Q1023 EDTY 191850Z AUTO 14006KT 9999 // FEW015/// OVC072/// 19/14 Q1021 EDTY 191820Z AUTO 18011G26KT 140V240 6000 // FEW028/// SCT057/// OVC066/// 20/15 Q1021 EDTY 191750Z 32004KT 9999 VCTS SCT050CB 26/15 Q1019 EDTY 191720Z 31005KT 9999 FEW050CB 25/16 Q1019 EDTY 191650Z 30004KT 270V340 9999 FEW055CB 29/16 Q1019 EDTY 191620Z 34005KT 320V030 9999 FEW055CB 28/16 Q1020 EDTY 191550Z 26004KT 220V310 9999 FEW055CB 29/16 Q1019 EDTY 191520Z 25006KT CAVOK 29/14 Q1019 EDTY 191450Z 25005KT 200V310 CAVOK 29/13 Q1019 EDTY 191420Z VRB04KT CAVOK 29/14 Q1020 EDTY 191350Z VRB03KT CAVOK 29/13 Q1020 EDTY 191320Z VRB02KT CAVOK 29/13 Q1021 EDTY 191250Z 31007KT 250V340 CAVOK 28/15 Q1021 EDTY 191220Z 30006KT 240V360 CAVOK 28/14 Q1021 EDTY 191150Z 31004KT 270V030 CAVOK 27/13 Q1021 EDTY 191120Z 30007KT 250V340 CAVOK 27/13 Q1021 EDTY 191050Z VRB02KT CAVOK 26/13 Q1021 EDTY 191020Z 24005KT 190V320 CAVOK 26/13 Q1022 EDTY 190950Z 24005KT 200V280 CAVOK 25/13 Q1022 EDTY 190920Z VRB03KT CAVOK 24/12 Q1022 EDTY 190850Z 15003KT 110V270 CAVOK 23/12 Q1022 EDTY 190820Z VRB04KT CAVOK 22/11 Q1022 EDTY 190750Z 15005KT 090V190 CAVOK 21/11 Q1022 EDTY 190720Z 13005KT 090V190 CAVOK 19/08 Q1022 EDTY 190650Z 12005KT 090V160 CAVOK 18/09 Q1022 EDTY 190620Z 12005KT CAVOK 17/08 Q1022 EDTY 190550Z 10005KT CAVOK 15/09 Q1022 EDTY 190520Z 11005KT CAVOK 14/08 Q1022 EDTY 190450Z 11005KT CAVOK 13/08 Q1022 EDTY 190420Z AUTO 11006KT 9999 // NCD 12/08 Q1022 EDTY 190350Z AUTO 09005KT 9999 // NCD 11/08 Q1022 EDTY 190320Z AUTO 08003KT 9999 // NCD 12/08 Q1022 EDTY 190250Z AUTO 08006KT 9999 // NCD 11/08 Q1022 EDTY 190220Z AUTO 07002KT 9999 // NCD 13/09 Q1022 EDTY 190150Z AUTO VRB02KT 9999 // NCD 12/09 Q1022 EDTY 190120Z AUTO VRB01KT 9999 // NCD 14/09 Q1022 EDTY 190050Z AUTO VRB01KT 9999 // NCD 14/09 Q1022 EDTY 190020Z AUTO VRB02KT 9999 1900 // NCD 13/09 Q1022 EDTY 182350Z AUTO 35002KT 9999 // NCD 13/10 Q1022 EDTY 182320Z AUTO 06003KT 9999 // NCD 14/10 Q1022 EDTY 182250Z AUTO 34002KT 9999 // NCD 15/11 Q1023 EDTY 182220Z AUTO 08004KT 9999 // NCD 16/11 Q1022 EDTY 182150Z AUTO 10005KT 9999 1700 // NCD 16/11 Q1023 EDTY 182120Z AUTO 11005KT 9999 2400 // NCD 17/11 Q1023 EDTY 182050Z AUTO 11008KT 9999 2200 // NCD 20/11 Q1022 EDTY 182020Z AUTO 12007KT 9999 4900 // NCD 21/11 Q1022 EDTY 181950Z AUTO 11006KT 9999 // NCD 21/12 Q1022 EDTY 181850Z 12006KT CAVOK 23/11 Q1022 EDTY 181820Z 12007KT CAVOK 24/10 Q1022 EDTY 181750Z 12008KT 090V170 CAVOK 24/10 Q1022 EDTY 181720Z 11007KT 090V150 CAVOK 25/10 Q1022 EDTY 181650Z 11007KT 090V160 CAVOK 25/10 Q1022 EDTY 181620Z 10009KT 070V130 CAVOK 25/11 Q1022 EDTY 181550Z 09010KT CAVOK 25/11 Q1022 EDTY 181520Z 09008KT 070V130 CAVOK 26/11 Q1022 EDTY 181450Z 08008KT 050V110 CAVOK 25/10 Q1022 EDTY 181420Z 11007KT 070V150 CAVOK 26/11 Q1023 EDTY 181350Z 11007KT 060V170 CAVOK 26/12 Q1023

METAR Messwerte "SCHWAEBISCH HALL" EDTY

Zurück zur Übersicht

Ortsname
Ländercode / m ü. NN
Zeit Temperatur Taupunkt Rel.
Luftfeuchte
Luftdruck:
Altimeter
NN
Station
Wind in Beaufort
(Knoten)
Sichtweite
(Meter)
Wolken
(Meter über Grund)
Wettererscheinung
SCHWAEBISCH HALL
DE 398
Fr 20.05. 02:50151494 %1023
1023
976
OSO 2 (3)>= 10000  
SCHWAEBISCH HALL
DE 398
Fr 20.05. 02:20161594 %1023
1023
976
SO 2 (4)>= 10000  
SCHWAEBISCH HALL
DE 398
Fr 20.05. 01:50161594 %1023
1023
976
OSO 2 (5)>= 10000Leicht bewölkt (7600) 
SCHWAEBISCH HALL
DE 398
Fr 20.05. 01:20161594 %1023
1023
976
NO 2 (5)>= 10000Stark bewölkt (4000) 
SCHWAEBISCH HALL
DE 398
Fr 20.05. 00:50171694 %1023
1023
976
SW 3 (8)
SO - W
>= 10000Stark bewölkt (5500)
Stark bewölkt (3000)
Leicht bewölkt (1800)
 
SCHWAEBISCH HALL
DE 398
Fr 20.05. 00:20161594 %1023
1023
976
SSW 2 (4)
SSO - WSW
>= 10000Stark bewölkt (4300)
Leicht bewölkt (3400)
 
SCHWAEBISCH HALL
DE 398
Do 19.05. 23:50171588 %1023
1023
976
S 2 (5)
SO - SW
>= 10000Leicht bewölkt (4300) 
SCHWAEBISCH HALL
DE 398
Do 19.05. 23:20171588 %1023
1023
976
SO 3 (7)>= 10000Bedeckt (3700)
Stark bewölkt (2100)
Leicht bewölkt (1700)
 
SCHWAEBISCH HALL
DE 398
Do 19.05. 22:50171588 %1024
1024
977
S 2 (4)
SO - SSW
>= 10000Stark bewölkt (4600)
Stark bewölkt (3000)
Leicht bewölkt (1700)
 
SCHWAEBISCH HALL
DE 398
Do 19.05. 22:20171588 %1023
1023
976
OSO 3 (7)>= 10000Leicht bewölkt (1900) 
SCHWAEBISCH HALL
DE 398
Do 19.05. 21:50171694 %1023
1023
976
O 2 (6)
ONO - SO
>= 10000Bedeckt (3000)
Stark bewölkt (1900)
 
SCHWAEBISCH HALL
DE 398
Do 19.05. 21:20181688 %1023
1023
976
N 3 (10)
NNW - NNO
>= 10000Bedeckt (1800)
Leicht bewölkt (370)
 
SCHWAEBISCH HALL
DE 398
Do 19.05. 20:50191473 %1021
1020
974
SO 2 (6)>= 10000Bedeckt (2200)
Leicht bewölkt (460)
 
SCHWAEBISCH HALL
DE 398
Do 19.05. 20:20201573 %1021
1020
974
S 4 (11) - 6 (26)
SO - WSW
6000Bedeckt (2000)
Wolkig (1700)
Leicht bewölkt (850)
 
SCHWAEBISCH HALL
DE 398
Do 19.05. 19:50261551 %1019
1017
972
NW 2 (4)>= 10000Wolkig Cb (1500) 
SCHWAEBISCH HALL
DE 398
Do 19.05. 19:20251657 %1019
1017
972
NW 2 (5)>= 10000Leicht bewölkt Cb (1500) 
SCHWAEBISCH HALL
DE 398
Do 19.05. 18:50291645 %1019
1017
972
WNW 2 (4)
W - NNW
>= 10000Leicht bewölkt Cb (1700) 
SCHWAEBISCH HALL
DE 398
Do 19.05. 18:20281648 %1020
1018
973
NNW 2 (5)
NW - NNO
>= 10000Leicht bewölkt Cb (1700) 
SCHWAEBISCH HALL
DE 398
Do 19.05. 17:50291645 %1019
1017
972
W 2 (4)
SW - NW
>= 10000Leicht bewölkt Cb (1700) 
SCHWAEBISCH HALL
DE 398
Do 19.05. 17:20291440 %1019
1017
972
WSW 2 (6)>= 10000Nicht signifikant 
SCHWAEBISCH HALL
DE 398
Do 19.05. 16:50291337 %1019
1017
972
WSW 2 (5)
SSW - NW
>= 10000Nicht signifikant 
SCHWAEBISCH HALL
DE 398
Do 19.05. 16:20291440 %1020
1018
973
Uml 2 (4)>= 10000Nicht signifikant 
SCHWAEBISCH HALL
DE 398
Do 19.05. 15:50291337 %1020
1018
973
Uml 2 (3)>= 10000Nicht signifikant 
SCHWAEBISCH HALL
DE 398
Do 19.05. 15:20291337 %1021
1019
974
Uml 1 (2)>= 10000Nicht signifikant 
SCHWAEBISCH HALL
DE 398
Do 19.05. 14:50281545 %1021
1019
974
NW 3 (7)
WSW - NNW
>= 10000Nicht signifikant 
SCHWAEBISCH HALL
DE 398
Do 19.05. 14:20281442 %1021
1019
974
WNW 2 (6)
WSW - N
>= 10000Nicht signifikant 
SCHWAEBISCH HALL
DE 398
Do 19.05. 13:50271342 %1021
1019
974
NW 2 (4)
W - NNO
>= 10000Nicht signifikant 
SCHWAEBISCH HALL
DE 398
Do 19.05. 13:20271342 %1021
1019
974
WNW 3 (7)
WSW - NNW
>= 10000Nicht signifikant 
SCHWAEBISCH HALL
DE 398
Do 19.05. 12:50261345 %1021
1019
974
Uml 1 (2)>= 10000Nicht signifikant 
SCHWAEBISCH HALL
DE 398
Do 19.05. 12:20261345 %1022
1020
975
WSW 2 (5)
S - NW
>= 10000Nicht signifikant 
SCHWAEBISCH HALL
DE 398
Do 19.05. 11:50251347 %1022
1020
975
WSW 2 (5)
SSW - W
>= 10000Nicht signifikant 
SCHWAEBISCH HALL
DE 398
Do 19.05. 11:20241247 %1022
1021
975
Uml 2 (3)>= 10000Nicht signifikant 
SCHWAEBISCH HALL
DE 398
Do 19.05. 10:50231250 %1022
1021
975
SSO 2 (3)
OSO - W
>= 10000Nicht signifikant 
SCHWAEBISCH HALL
DE 398
Do 19.05. 10:20221150 %1022
1021
975
Uml 2 (4)>= 10000Nicht signifikant 
SCHWAEBISCH HALL
DE 398
Do 19.05. 09:50211153 %1022
1021
975
SSO 2 (5)
O - S
>= 10000Nicht signifikant 
SCHWAEBISCH HALL
DE 398
Do 19.05. 09:2019849 %1022
1021
975
SO 2 (5)
O - S
>= 10000Nicht signifikant 
SCHWAEBISCH HALL
DE 398
Do 19.05. 08:5018956 %1022
1022
975
OSO 2 (5)
O - SSO
>= 10000Nicht signifikant 
SCHWAEBISCH HALL
DE 398
Do 19.05. 08:2017855 %1022
1022
975
OSO 2 (5)>= 10000Nicht signifikant 
SCHWAEBISCH HALL
DE 398
Do 19.05. 07:5015967 %1022
1022
975
O 2 (5)>= 10000Nicht signifikant 
SCHWAEBISCH HALL
DE 398
Do 19.05. 07:2014867 %1022
1022
975
OSO 2 (5)>= 10000Nicht signifikant 
SCHWAEBISCH HALL
DE 398
Do 19.05. 06:5013872 %1022
1022
975
OSO 2 (5)>= 10000Nicht signifikant 
SCHWAEBISCH HALL
DE 398
Do 19.05. 06:2012876 %1022
1023
975
OSO 2 (6)>= 10000  
SCHWAEBISCH HALL
DE 398
Do 19.05. 05:5011882 %1022
1023
975
O 2 (5)>= 10000  
SCHWAEBISCH HALL
DE 398
Do 19.05. 05:2012876 %1022
1023
975
O 2 (3)>= 10000  
SCHWAEBISCH HALL
DE 398
Do 19.05. 04:5011882 %1022
1023
975
O 2 (6)>= 10000  
SCHWAEBISCH HALL
DE 398
Do 19.05. 04:2013977 %1022
1022
975
ONO 1 (2)>= 10000  
SCHWAEBISCH HALL
DE 398
Do 19.05. 03:5012982 %1022
1023
975
Uml 1 (2)>= 10000  
SCHWAEBISCH HALL
DE 398
Do 19.05. 03:2014972 %1022
1022
975
Uml 1 (1)>= 10000  
SCHWAEBISCH HALL
DE 398
Do 19.05. 02:5014972 %1022
1022
975
Uml 1 (1)>= 10000  
SCHWAEBISCH HALL
DE 398
Do 19.05. 02:2013977 %1022
1022
975
Uml 1 (2)>= 10000  
SCHWAEBISCH HALL
DE 398
Do 19.05. 01:50131082 %1022
1022
975
N 1 (2)>= 10000  
SCHWAEBISCH HALL
DE 398
Do 19.05. 01:20141077 %1022
1022
975
ONO 2 (3)>= 10000  
SCHWAEBISCH HALL
DE 398
Do 19.05. 00:50151177 %1023
1023
976
NNW 1 (2)>= 10000  
SCHWAEBISCH HALL
DE 398
Do 19.05. 00:20161172 %1022
1022
975
O 2 (4)>= 10000  
SCHWAEBISCH HALL
DE 398
Mi 18.05. 23:50161172 %1023
1023
976
O 2 (5)>= 10000  
SCHWAEBISCH HALL
DE 398
Mi 18.05. 23:20171168 %1023
1023
976
OSO 2 (5)>= 10000  
SCHWAEBISCH HALL
DE 398
Mi 18.05. 22:50201156 %1022
1021
975
OSO 3 (8)>= 10000  
SCHWAEBISCH HALL
DE 398
Mi 18.05. 22:20211153 %1022
1021
975
OSO 3 (7)>= 10000  
SCHWAEBISCH HALL
DE 398
Mi 18.05. 21:50211256 %1022
1021
975
OSO 2 (6)>= 10000  
SCHWAEBISCH HALL
DE 398
Mi 18.05. 20:50231147 %1022
1021
975
OSO 2 (6)>= 10000Nicht signifikant 
SCHWAEBISCH HALL
DE 398
Mi 18.05. 20:20241041 %1022
1021
975
OSO 3 (7)>= 10000Nicht signifikant 
SCHWAEBISCH HALL
DE 398
Mi 18.05. 19:50241041 %1022
1021
975
OSO 3 (8)
O - S
>= 10000Nicht signifikant 
SCHWAEBISCH HALL
DE 398
Mi 18.05. 19:20251039 %1022
1020
975
OSO 3 (7)
O - SSO
>= 10000Nicht signifikant 
SCHWAEBISCH HALL
DE 398
Mi 18.05. 18:50251039 %1022
1020
975
OSO 3 (7)
O - SSO
>= 10000Nicht signifikant 
SCHWAEBISCH HALL
DE 398
Mi 18.05. 18:20251141 %1022
1020
975
O 3 (9)
ONO - SO
>= 10000Nicht signifikant 
SCHWAEBISCH HALL
DE 398
Mi 18.05. 17:50251141 %1022
1020
975
O 3 (10)>= 10000Nicht signifikant 
SCHWAEBISCH HALL
DE 398
Mi 18.05. 17:20261139 %1022
1020
975
O 3 (8)
ONO - SO
>= 10000Nicht signifikant 
SCHWAEBISCH HALL
DE 398
Mi 18.05. 16:50251039 %1022
1020
975
O 3 (8)
NO - OSO
>= 10000Nicht signifikant 
SCHWAEBISCH HALL
DE 398
Mi 18.05. 16:20261139 %1023
1021
976
OSO 3 (7)
ONO - SSO
>= 10000Nicht signifikant 
SCHWAEBISCH HALL
DE 398
Mi 18.05. 15:50261242 %1023
1021
976
OSO 3 (7)
ONO - S
>= 10000Nicht signifikant 

Altimeter: Einstellung am Altimeter (Höhenmesser), die Höhe 0 muss auf diesen Luftdruckwert zeigen, damit das Gerät die Stationshöhe richtig anzeigt.

NN: Luftdruck reduziert auf "Normal Null", auf Meereshöhe, dieser von der Temperatur abhängige Wert wird bisweilen unkorrekt einfach als "Luftdruck" bezeichnet. Eigentlich nur eine fiktive Größe, die es erlaubt, Stationen auf unterschiedlichen Höhen miteinander zu vergleichen.

Station: Realer Luftdruck an der Station.